sensor_id;sensor_type;location;lat;lon;timestamp;pressure;altitude;pressure_sealevel;temperature;humidity
76815;BME280;65768;49.906;19.384;2023-05-19T00:00:44;99147.62;;;11.42;81.30
76815;BME280;65768;49.906;19.384;2023-05-19T00:03:53;99140.17;;;11.61;81.00
76815;BME280;65768;49.906;19.384;2023-05-19T00:06:45;99144.91;;;11.48;81.55
76815;BME280;65768;49.906;19.384;2023-05-19T00:09:47;99143.38;;;11.51;81.33
76815;BME280;65768;49.906;19.384;2023-05-19T00:12:29;99139.33;;;11.49;81.57
76815;BME280;65768;49.906;19.384;2023-05-19T00:15:15;99135.88;;;11.52;81.31
76815;BME280;65768;49.906;19.384;2023-05-19T00:17:53;99129.14;;;11.59;80.86
76815;BME280;65768;49.906;19.384;2023-05-19T00:20:51;99133.31;;;11.57;81.11
76815;BME280;65768;49.906;19.384;2023-05-19T00:26:21;99129.59;;;11.52;81.59
76815;BME280;65768;49.906;19.384;2023-05-19T00:31:54;99124.42;;;11.59;80.94
76815;BME280;65768;49.906;19.384;2023-05-19T00:34:31;99126.94;;;11.50;81.36
76815;BME280;65768;49.906;19.384;2023-05-19T00:37:18;99121.11;;;11.43;81.59
76815;BME280;65768;49.906;19.384;2023-05-19T00:39:56;99115.53;;;11.43;81.48
76815;BME280;65768;49.906;19.384;2023-05-19T00:42:32;99112.45;;;11.34;82.04
76815;BME280;65768;49.906;19.384;2023-05-19T00:45:23;99115.66;;;11.25;82.47
76815;BME280;65768;49.906;19.384;2023-05-19T00:48:06;99116.10;;;11.33;82.22
76815;BME280;65768;49.906;19.384;2023-05-19T00:53:42;99118.76;;;11.51;81.40
76815;BME280;65768;49.906;19.384;2023-05-19T00:56:23;99112.96;;;11.33;81.93
76815;BME280;65768;49.906;19.384;2023-05-19T00:59:05;99114.17;;;11.33;82.29
76815;BME280;65768;49.906;19.384;2023-05-19T01:01:39;99108.94;;;11.32;82.30
76815;BME280;65768;49.906;19.384;2023-05-19T01:04:11;99110.04;;;11.22;82.51
76815;BME280;65768;49.906;19.384;2023-05-19T01:06:50;99111.05;;;11.34;82.45
76815;BME280;65768;49.906;19.384;2023-05-19T01:09:31;99110.67;;;11.47;81.64
76815;BME280;65768;49.906;19.384;2023-05-19T01:12:02;99119.74;;;11.62;81.29
76815;BME280;65768;49.906;19.384;2023-05-19T01:14:39;99116.69;;;11.54;81.51
76815;BME280;65768;49.906;19.384;2023-05-19T01:17:38;99114.24;;;11.38;82.13
76815;BME280;65768;49.906;19.384;2023-05-19T01:20:38;99115.81;;;11.38;82.16
76815;BME280;65768;49.906;19.384;2023-05-19T01:33:06;99115.19;;;11.29;83.35
76815;BME280;65768;49.906;19.384;2023-05-19T01:35:39;99109.48;;;11.33;82.74
76815;BME280;65768;49.906;19.384;2023-05-19T01:38:33;99106.56;;;11.23;83.18
76815;BME280;65768;49.906;19.384;2023-05-19T01:41:14;99100.88;;;11.15;83.49
76815;BME280;65768;49.906;19.384;2023-05-19T01:43:57;99096.06;;;10.93;84.27
76815;BME280;65768;49.906;19.384;2023-05-19T01:46:46;99096.89;;;10.91;84.88
76815;BME280;65768;49.906;19.384;2023-05-19T01:49:23;99097.24;;;11.04;84.46
76815;BME280;65768;49.906;19.384;2023-05-19T01:52:09;99094.88;;;11.10;84.16
76815;BME280;65768;49.906;19.384;2023-05-19T01:54:57;99097.80;;;10.94;84.56
76815;BME280;65768;49.906;19.384;2023-05-19T01:57:46;99090.90;;;10.99;84.52
76815;BME280;65768;49.906;19.384;2023-05-19T02:07:11;99084.27;;;10.99;84.31
76815;BME280;65768;49.906;19.384;2023-05-19T02:10:12;99086.29;;;10.92;84.80
76815;BME280;65768;49.906;19.384;2023-05-19T02:12:47;99083.27;;;11.02;84.61
76815;BME280;65768;49.906;19.384;2023-05-19T02:16:03;99083.08;;;11.01;84.32
76815;BME280;65768;49.906;19.384;2023-05-19T02:18:41;99084.23;;;10.96;84.34
76815;BME280;65768;49.906;19.384;2023-05-19T02:24:32;99081.48;;;11.13;84.11
76815;BME280;65768;49.906;19.384;2023-05-19T02:27:14;99081.95;;;11.08;83.99
76815;BME280;65768;49.906;19.384;2023-05-19T02:29:48;99084.74;;;11.09;83.74
76815;BME280;65768;49.906;19.384;2023-05-19T02:32:29;99084.42;;;11.11;83.95
76815;BME280;65768;49.906;19.384;2023-05-19T02:35:13;99085.95;;;11.22;83.88
76815;BME280;65768;49.906;19.384;2023-05-19T02:38:00;99079.73;;;11.28;83.71
76815;BME280;65768;49.906;19.384;2023-05-19T02:40:40;99081.27;;;11.23;83.71
76815;BME280;65768;49.906;19.384;2023-05-19T02:43:24;99073.69;;;11.49;82.82
76815;BME280;65768;49.906;19.384;2023-05-19T02:46:07;99073.33;;;11.48;82.41
76815;BME280;65768;49.906;19.384;2023-05-19T02:48:43;99062.97;;;11.43;82.81
76815;BME280;65768;49.906;19.384;2023-05-19T02:51:36;99056.59;;;11.34;83.16
76815;BME280;65768;49.906;19.384;2023-05-19T02:54:16;99060.14;;;11.40;82.92
76815;BME280;65768;49.906;19.384;2023-05-19T02:56:55;99066.38;;;11.51;82.14
76815;BME280;65768;49.906;19.384;2023-05-19T02:59:43;99063.42;;;11.53;82.16
76815;BME280;65768;49.906;19.384;2023-05-19T03:02:17;99064.87;;;11.41;82.76
76815;BME280;65768;49.906;19.384;2023-05-19T03:05:07;99062.05;;;11.39;83.01
76815;BME280;65768;49.906;19.384;2023-05-19T03:07:48;99065.48;;;11.49;82.64
76815;BME280;65768;49.906;19.384;2023-05-19T03:10:33;99062.16;;;11.49;82.48
76815;BME280;65768;49.906;19.384;2023-05-19T03:13:35;99060.29;;;11.54;82.24
76815;BME280;65768;49.906;19.384;2023-05-19T03:16:12;99060.80;;;11.53;82.35
76815;BME280;65768;49.906;19.384;2023-05-19T03:19:05;99062.27;;;11.77;82.07
76815;BME280;65768;49.906;19.384;2023-05-19T03:24:45;99061.24;;;11.79;81.38
76815;BME280;65768;49.906;19.384;2023-05-19T03:27:51;99062.35;;;11.69;81.21
76815;BME280;65768;49.906;19.384;2023-05-19T03:30:42;99064.55;;;11.61;82.05
76815;BME280;65768;49.906;19.384;2023-05-19T03:33:43;99064.88;;;11.59;82.04
76815;BME280;65768;49.906;19.384;2023-05-19T03:36:27;99069.58;;;11.75;81.69
76815;BME280;65768;49.906;19.384;2023-05-19T03:39:35;99067.33;;;11.77;81.60
76815;BME280;65768;49.906;19.384;2023-05-19T03:42:29;99073.83;;;11.81;81.41
76815;BME280;65768;49.906;19.384;2023-05-19T03:47:54;99074.88;;;12.19;80.53
76815;BME280;65768;49.906;19.384;2023-05-19T03:51:18;99078.77;;;12.25;80.15
76815;BME280;65768;49.906;19.384;2023-05-19T03:54:38;99079.84;;;12.06;80.55
76815;BME280;65768;49.906;19.384;2023-05-19T03:57:30;99084.44;;;12.14;80.44
76815;BME280;65768;49.906;19.384;2023-05-19T04:00:11;99085.06;;;12.02;80.76
76815;BME280;65768;49.906;19.384;2023-05-19T04:02:56;99082.04;;;11.97;80.96
76815;BME280;65768;49.906;19.384;2023-05-19T04:05:35;99075.22;;;11.96;81.33
76815;BME280;65768;49.906;19.384;2023-05-19T04:08:14;99076.61;;;11.96;80.90
76815;BME280;65768;49.906;19.384;2023-05-19T04:11:14;99076.17;;;12.06;81.25
76815;BME280;65768;49.906;19.384;2023-05-19T04:14:00;99077.36;;;12.22;80.44
76815;BME280;65768;49.906;19.384;2023-05-19T04:17:11;99075.27;;;12.26;79.88
76815;BME280;65768;49.906;19.384;2023-05-19T04:19:47;99077.89;;;12.49;79.17
76815;BME280;65768;49.906;19.384;2023-05-19T04:22:33;99073.18;;;12.51;79.43
76815;BME280;65768;49.906;19.384;2023-05-19T04:25:22;99073.12;;;12.42;79.09
76815;BME280;65768;49.906;19.384;2023-05-19T04:28:29;99068.98;;;12.51;79.19
76815;BME280;65768;49.906;19.384;2023-05-19T04:31:04;99071.23;;;12.46;79.46
76815;BME280;65768;49.906;19.384;2023-05-19T04:33:44;99068.20;;;12.66;78.80
76815;BME280;65768;49.906;19.384;2023-05-19T04:36:14;99074.52;;;12.69;78.77
76815;BME280;65768;49.906;19.384;2023-05-19T04:42:07;99076.75;;;12.60;78.90
76815;BME280;65768;49.906;19.384;2023-05-19T04:44:57;99075.92;;;12.70;78.78
76815;BME280;65768;49.906;19.384;2023-05-19T04:47:38;99078.38;;;12.70;78.81
76815;BME280;65768;49.906;19.384;2023-05-19T04:50:10;99078.78;;;12.81;78.77
76815;BME280;65768;49.906;19.384;2023-05-19T04:52:46;99078.96;;;12.83;78.38
76815;BME280;65768;49.906;19.384;2023-05-19T04:55:20;99081.14;;;12.99;78.54
76815;BME280;65768;49.906;19.384;2023-05-19T04:57:52;99080.56;;;12.85;78.34
76815;BME280;65768;49.906;19.384;2023-05-19T05:00:31;99087.41;;;12.93;78.15
76815;BME280;65768;49.906;19.384;2023-05-19T05:05:43;99089.55;;;12.99;77.83
76815;BME280;65768;49.906;19.384;2023-05-19T05:08:35;99088.21;;;13.15;77.04
76815;BME280;65768;49.906;19.384;2023-05-19T05:11:04;99091.36;;;13.15;77.67
76815;BME280;65768;49.906;19.384;2023-05-19T05:13:45;99090.34;;;13.19;77.15
76815;BME280;65768;49.906;19.384;2023-05-19T05:16:48;99090.20;;;13.27;76.80
76815;BME280;65768;49.906;19.384;2023-05-19T05:22:04;99092.19;;;13.43;76.67
76815;BME280;65768;49.906;19.384;2023-05-19T05:24:35;99092.58;;;13.52;75.95
76815;BME280;65768;49.906;19.384;2023-05-19T05:29:55;99094.55;;;13.68;75.56
76815;BME280;65768;49.906;19.384;2023-05-19T05:32:51;99097.86;;;13.64;75.61
76815;BME280;65768;49.906;19.384;2023-05-19T05:35:26;99096.82;;;13.67;75.22
76815;BME280;65768;49.906;19.384;2023-05-19T05:37:57;99100.00;;;13.83;75.29
76815;BME280;65768;49.906;19.384;2023-05-19T05:43:34;99097.40;;;14.07;74.25
76815;BME280;65768;49.906;19.384;2023-05-19T05:46:06;99097.23;;;14.31;73.76
76815;BME280;65768;49.906;19.384;2023-05-19T05:48:34;99094.92;;;14.46;73.39
76815;BME280;65768;49.906;19.384;2023-05-19T05:51:14;99097.76;;;14.31;72.13
76815;BME280;65768;49.906;19.384;2023-05-19T05:53:54;99097.75;;;14.50;73.02
76815;BME280;65768;49.906;19.384;2023-05-19T05:56:25;99096.53;;;14.53;72.46
76815;BME280;65768;49.906;19.384;2023-05-19T05:59:23;99097.75;;;14.50;72.60
76815;BME280;65768;49.906;19.384;2023-05-19T06:01:53;99097.39;;;14.47;71.96
76815;BME280;65768;49.906;19.384;2023-05-19T06:04:21;99096.52;;;14.52;72.27
76815;BME280;65768;49.906;19.384;2023-05-19T06:06:52;99100.17;;;14.79;72.31
76815;BME280;65768;49.906;19.384;2023-05-19T06:09:25;99101.23;;;14.86;71.37
76815;BME280;65768;49.906;19.384;2023-05-19T06:11:53;99105.80;;;14.65;70.65
76815;BME280;65768;49.906;19.384;2023-05-19T06:14:25;99108.45;;;14.61;70.96
76815;BME280;65768;49.906;19.384;2023-05-19T06:16:53;99107.05;;;14.44;71.21
76815;BME280;65768;49.906;19.384;2023-05-19T06:19:25;99113.19;;;14.49;71.44
76815;BME280;65768;49.906;19.384;2023-05-19T06:21:53;99108.64;;;14.51;71.50
76815;BME280;65768;49.906;19.384;2023-05-19T06:24:25;99109.15;;;14.19;71.65
76815;BME280;65768;49.906;19.384;2023-05-19T06:27:16;99112.66;;;14.28;71.91
76815;BME280;65768;49.906;19.384;2023-05-19T06:29:54;99112.85;;;14.54;72.07
76815;BME280;65768;49.906;19.384;2023-05-19T06:32:25;99116.52;;;14.35;71.42
76815;BME280;65768;49.906;19.384;2023-05-19T06:34:59;99114.42;;;14.56;71.33
76815;BME280;65768;49.906;19.384;2023-05-19T06:37:30;99111.91;;;14.87;71.88
76815;BME280;65768;49.906;19.384;2023-05-19T06:39:59;99107.69;;;14.92;71.27
76815;BME280;65768;49.906;19.384;2023-05-19T06:42:30;99103.50;;;14.82;71.15
76815;BME280;65768;49.906;19.384;2023-05-19T06:44:59;99103.02;;;14.51;71.55
76815;BME280;65768;49.906;19.384;2023-05-19T06:47:33;99110.38;;;14.36;71.36
76815;BME280;65768;49.906;19.384;2023-05-19T06:50:02;99111.61;;;14.60;71.65
76815;BME280;65768;49.906;19.384;2023-05-19T06:52:31;99109.80;;;14.88;71.32
76815;BME280;65768;49.906;19.384;2023-05-19T06:55:09;99113.44;;;15.07;71.05
76815;BME280;65768;49.906;19.384;2023-05-19T06:57:37;99113.13;;;14.92;71.07
76815;BME280;65768;49.906;19.384;2023-05-19T07:00:10;99113.30;;;14.91;70.99
76815;BME280;65768;49.906;19.384;2023-05-19T07:02:39;99112.66;;;14.63;71.41
76815;BME280;65768;49.906;19.384;2023-05-19T07:05:10;99113.70;;;14.75;71.17
76815;BME280;65768;49.906;19.384;2023-05-19T07:07:39;99113.05;;;15.21;71.03
76815;BME280;65768;49.906;19.384;2023-05-19T07:10:09;99111.35;;;15.46;70.08
76815;BME280;65768;49.906;19.384;2023-05-19T07:12:40;99111.90;;;15.42;69.97
76815;BME280;65768;49.906;19.384;2023-05-19T07:15:11;99108.59;;;15.37;69.95
76815;BME280;65768;49.906;19.384;2023-05-19T07:17:39;99112.48;;;15.30;70.09
76815;BME280;65768;49.906;19.384;2023-05-19T07:20:14;99113.20;;;15.26;70.29
76815;BME280;65768;49.906;19.384;2023-05-19T07:22:54;99111.13;;;15.19;69.66
76815;BME280;65768;49.906;19.384;2023-05-19T07:25:22;99110.64;;;15.06;69.90
76815;BME280;65768;49.906;19.384;2023-05-19T07:27:53;99108.52;;;15.06;70.82
76815;BME280;65768;49.906;19.384;2023-05-19T07:33:08;99109.89;;;15.16;70.32
76815;BME280;65768;49.906;19.384;2023-05-19T07:35:37;99104.98;;;15.14;70.45
76815;BME280;65768;49.906;19.384;2023-05-19T07:38:28;99103.21;;;15.20;70.82
76815;BME280;65768;49.906;19.384;2023-05-19T07:41:09;99107.77;;;15.17;70.80
76815;BME280;65768;49.906;19.384;2023-05-19T07:43:38;99105.83;;;15.22;69.96
76815;BME280;65768;49.906;19.384;2023-05-19T07:46:10;99104.40;;;15.26;70.05
76815;BME280;65768;49.906;19.384;2023-05-19T07:48:39;99105.36;;;15.09;70.48
76815;BME280;65768;49.906;19.384;2023-05-19T07:51:11;99105.15;;;15.17;69.73
76815;BME280;65768;49.906;19.384;2023-05-19T07:53:40;99103.02;;;15.26;70.47
76815;BME280;65768;49.906;19.384;2023-05-19T07:56:09;99109.15;;;15.24;70.23
76815;BME280;65768;49.906;19.384;2023-05-19T07:58:48;99112.88;;;15.18;70.21
76815;BME280;65768;49.906;19.384;2023-05-19T08:01:19;99110.96;;;15.12;70.48
76815;BME280;65768;49.906;19.384;2023-05-19T08:03:47;99116.77;;;15.11;70.46
76815;BME280;65768;49.906;19.384;2023-05-19T08:06:30;99109.73;;;15.13;70.37
76815;BME280;65768;49.906;19.384;2023-05-19T08:08:59;99114.91;;;15.35;70.04
76815;BME280;65768;49.906;19.384;2023-05-19T08:11:32;99115.58;;;15.43;69.82
76815;BME280;65768;49.906;19.384;2023-05-19T08:14:02;99114.31;;;15.52;69.57
76815;BME280;65768;49.906;19.384;2023-05-19T08:16:33;99110.05;;;15.61;69.46
76815;BME280;65768;49.906;19.384;2023-05-19T08:19:12;99118.02;;;15.84;68.40
76815;BME280;65768;49.906;19.384;2023-05-19T08:22:08;99115.38;;;15.86;67.87
76815;BME280;65768;49.906;19.384;2023-05-19T08:24:35;99123.27;;;16.36;68.38
76815;BME280;65768;49.906;19.384;2023-05-19T08:27:04;99124.27;;;16.63;67.34
76815;BME280;65768;49.906;19.384;2023-05-19T08:29:35;99123.77;;;16.82;65.62
76815;BME280;65768;49.906;19.384;2023-05-19T08:32:05;99124.67;;;16.78;65.90
76815;BME280;65768;49.906;19.384;2023-05-19T08:34:33;99125.54;;;16.60;64.97
76815;BME280;65768;49.906;19.384;2023-05-19T08:37:02;99130.22;;;16.48;65.57
76815;BME280;65768;49.906;19.384;2023-05-19T08:39:30;99129.13;;;16.30;66.56
76815;BME280;65768;49.906;19.384;2023-05-19T08:42:00;99128.96;;;16.51;66.66
76815;BME280;65768;49.906;19.384;2023-05-19T08:44:29;99134.95;;;16.50;66.51
76815;BME280;65768;49.906;19.384;2023-05-19T08:47:03;99131.91;;;16.54;66.80
76815;BME280;65768;49.906;19.384;2023-05-19T08:49:44;99132.09;;;16.94;65.95
76815;BME280;65768;49.906;19.384;2023-05-19T08:52:24;99130.11;;;16.79;64.96
76815;BME280;65768;49.906;19.384;2023-05-19T08:55:02;99130.63;;;16.82;65.70
76815;BME280;65768;49.906;19.384;2023-05-19T08:57:31;99130.18;;;16.29;65.79
76815;BME280;65768;49.906;19.384;2023-05-19T09:00:03;99130.23;;;16.47;66.00
76815;BME280;65768;49.906;19.384;2023-05-19T09:02:41;99123.48;;;16.91;65.88
76815;BME280;65768;49.906;19.384;2023-05-19T09:05:10;99126.36;;;17.46;64.94
76815;BME280;65768;49.906;19.384;2023-05-19T09:07:42;99125.39;;;17.67;62.92
76815;BME280;65768;49.906;19.384;2023-05-19T09:10:11;99127.05;;;17.19;63.43
76815;BME280;65768;49.906;19.384;2023-05-19T09:12:44;99127.80;;;17.15;64.21
76815;BME280;65768;49.906;19.384;2023-05-19T09:15:17;99129.77;;;17.13;63.36
76815;BME280;65768;49.906;19.384;2023-05-19T09:17:48;99131.09;;;17.20;63.27
76815;BME280;65768;49.906;19.384;2023-05-19T09:20:16;99131.21;;;17.10;64.28
76815;BME280;65768;49.906;19.384;2023-05-19T09:22:45;99131.92;;;17.09;64.10
76815;BME280;65768;49.906;19.384;2023-05-19T09:25:21;99131.53;;;16.80;64.01
76815;BME280;65768;49.906;19.384;2023-05-19T09:27:52;99130.86;;;17.25;64.08
76815;BME280;65768;49.906;19.384;2023-05-19T09:30:22;99127.95;;;17.32;63.57
76815;BME280;65768;49.906;19.384;2023-05-19T09:32:51;99126.20;;;17.73;63.43
76815;BME280;65768;49.906;19.384;2023-05-19T09:35:19;99129.30;;;17.24;63.25
76815;BME280;65768;49.906;19.384;2023-05-19T09:37:48;99123.91;;;17.58;63.43
76815;BME280;65768;49.906;19.384;2023-05-19T09:40:16;99125.27;;;17.91;62.62
76815;BME280;65768;49.906;19.384;2023-05-19T09:42:45;99125.33;;;17.74;62.65
76815;BME280;65768;49.906;19.384;2023-05-19T09:45:15;99121.72;;;17.52;62.40
76815;BME280;65768;49.906;19.384;2023-05-19T09:47:46;99124.92;;;17.63;62.31
76815;BME280;65768;49.906;19.384;2023-05-19T09:50:15;99119.88;;;17.57;62.55
76815;BME280;65768;49.906;19.384;2023-05-19T09:52:43;99122.54;;;17.57;63.29
76815;BME280;65768;49.906;19.384;2023-05-19T09:55:12;99124.23;;;17.17;63.18
76815;BME280;65768;49.906;19.384;2023-05-19T09:57:40;99121.46;;;16.99;64.31
76815;BME280;65768;49.906;19.384;2023-05-19T10:00:10;99123.94;;;16.82;64.28
76815;BME280;65768;49.906;19.384;2023-05-19T10:02:43;99121.30;;;16.81;65.40
76815;BME280;65768;49.906;19.384;2023-05-19T10:05:14;99117.92;;;16.63;64.87
76815;BME280;65768;49.906;19.384;2023-05-19T10:07:50;99121.17;;;16.35;65.54
76815;BME280;65768;49.906;19.384;2023-05-19T10:10:21;99117.05;;;16.22;67.05
76815;BME280;65768;49.906;19.384;2023-05-19T10:12:49;99117.13;;;16.74;66.75
76815;BME280;65768;49.906;19.384;2023-05-19T10:15:23;99114.98;;;17.12;64.63
76815;BME280;65768;49.906;19.384;2023-05-19T10:17:52;99114.48;;;17.38;64.08
76815;BME280;65768;49.906;19.384;2023-05-19T10:20:22;99110.99;;;17.06;63.67
76815;BME280;65768;49.906;19.384;2023-05-19T10:22:50;99112.36;;;16.95;64.55
76815;BME280;65768;49.906;19.384;2023-05-19T10:25:18;99108.09;;;16.98;64.39
76815;BME280;65768;49.906;19.384;2023-05-19T10:30:25;99105.09;;;17.42;64.33
76815;BME280;65768;49.906;19.384;2023-05-19T10:32:54;99100.69;;;17.42;64.26
76815;BME280;65768;49.906;19.384;2023-05-19T10:35:50;99103.73;;;17.23;63.96
76815;BME280;65768;49.906;19.384;2023-05-19T10:41:26;99108.44;;;17.43;63.54
76815;BME280;65768;49.906;19.384;2023-05-19T10:44:08;99112.62;;;17.18;64.16
76815;BME280;65768;49.906;19.384;2023-05-19T10:46:38;99115.26;;;17.18;64.32
76815;BME280;65768;49.906;19.384;2023-05-19T10:49:08;99109.82;;;17.01;65.15
76815;BME280;65768;49.906;19.384;2023-05-19T10:51:36;99108.77;;;17.29;65.04
76815;BME280;65768;49.906;19.384;2023-05-19T10:54:07;99109.89;;;17.93;64.25
76815;BME280;65768;49.906;19.384;2023-05-19T10:56:38;99106.92;;;17.89;63.33
76815;BME280;65768;49.906;19.384;2023-05-19T10:59:29;99108.30;;;18.16;63.10
76815;BME280;65768;49.906;19.384;2023-05-19T11:02:05;99105.58;;;18.42;61.62
76815;BME280;65768;49.906;19.384;2023-05-19T11:04:47;99107.70;;;18.62;61.31
76815;BME280;65768;49.906;19.384;2023-05-19T11:07:20;99103.86;;;18.91;60.92
76815;BME280;65768;49.906;19.384;2023-05-19T11:09:50;99101.00;;;19.27;60.34
76815;BME280;65768;49.906;19.384;2023-05-19T11:12:22;99095.83;;;19.64;60.11
76815;BME280;65768;49.906;19.384;2023-05-19T11:14:52;99095.23;;;19.33;58.77
76815;BME280;65768;49.906;19.384;2023-05-19T11:17:23;99099.28;;;18.49;60.32
76815;BME280;65768;49.906;19.384;2023-05-19T11:19:56;99098.97;;;18.36;60.55
76815;BME280;65768;49.906;19.384;2023-05-19T11:22:27;99099.90;;;18.11;62.53
76815;BME280;65768;49.906;19.384;2023-05-19T11:24:56;99101.09;;;18.14;62.87
76815;BME280;65768;49.906;19.384;2023-05-19T11:27:28;99103.09;;;18.33;63.34
76815;BME280;65768;49.906;19.384;2023-05-19T11:30:00;99107.10;;;17.89;62.53
76815;BME280;65768;49.906;19.384;2023-05-19T11:32:36;99104.63;;;17.51;63.32
76815;BME280;65768;49.906;19.384;2023-05-19T11:35:06;99109.21;;;17.37;64.98
76815;BME280;65768;49.906;19.384;2023-05-19T11:37:35;99109.41;;;17.49;64.67
76815;BME280;65768;49.906;19.384;2023-05-19T11:40:04;99106.88;;;17.54;64.32
76815;BME280;65768;49.906;19.384;2023-05-19T11:42:36;99106.38;;;17.65;64.48
76815;BME280;65768;49.906;19.384;2023-05-19T11:45:04;99108.17;;;17.76;64.26
76815;BME280;65768;49.906;19.384;2023-05-19T11:47:36;99108.15;;;17.51;64.56
76815;BME280;65768;49.906;19.384;2023-05-19T11:50:05;99106.66;;;17.44;64.80
76815;BME280;65768;49.906;19.384;2023-05-19T11:52:34;99107.50;;;17.33;65.49
76815;BME280;65768;49.906;19.384;2023-05-19T11:55:02;99112.09;;;17.33;65.83
76815;BME280;65768;49.906;19.384;2023-05-19T11:57:33;99112.95;;;17.34;65.72
76815;BME280;65768;49.906;19.384;2023-05-19T12:00:01;99110.07;;;17.80;64.87
76815;BME280;65768;49.906;19.384;2023-05-19T12:02:32;99111.23;;;17.72;64.33
76815;BME280;65768;49.906;19.384;2023-05-19T12:05:00;99111.54;;;17.61;64.11
76815;BME280;65768;49.906;19.384;2023-05-19T12:07:28;99111.09;;;17.42;64.77
76815;BME280;65768;49.906;19.384;2023-05-19T12:09:58;99108.30;;;17.53;63.91
76815;BME280;65768;49.906;19.384;2023-05-19T12:12:28;99107.99;;;17.63;64.14
76815;BME280;65768;49.906;19.384;2023-05-19T12:15:01;99105.48;;;17.67;63.66
76815;BME280;65768;49.906;19.384;2023-05-19T12:17:33;99103.15;;;18.07;63.28
76815;BME280;65768;49.906;19.384;2023-05-19T12:20:02;99103.46;;;18.09;62.87
76815;BME280;65768;49.906;19.384;2023-05-19T12:22:35;99098.95;;;17.92;63.07
76815;BME280;65768;49.906;19.384;2023-05-19T12:25:04;99100.10;;;18.11;62.84
76815;BME280;65768;49.906;19.384;2023-05-19T12:27:35;99098.58;;;18.38;62.35
76815;BME280;65768;49.906;19.384;2023-05-19T12:30:05;99089.31;;;18.73;61.87
76815;BME280;65768;49.906;19.384;2023-05-19T12:32:34;99088.37;;;18.57;62.37
76815;BME280;65768;49.906;19.384;2023-05-19T12:35:05;99089.83;;;18.64;62.63
76815;BME280;65768;49.906;19.384;2023-05-19T12:37:35;99085.88;;;18.97;61.98
76815;BME280;65768;49.906;19.384;2023-05-19T12:40:04;99088.63;;;18.52;61.70
76815;BME280;65768;49.906;19.384;2023-05-19T12:42:33;99090.62;;;18.49;62.31
76815;BME280;65768;49.906;19.384;2023-05-19T12:45:03;99094.46;;;18.41;62.29
76815;BME280;65768;49.906;19.384;2023-05-19T12:47:35;99093.16;;;18.45;61.91
76815;BME280;65768;49.906;19.384;2023-05-19T12:50:05;99098.21;;;18.28;62.21
76815;BME280;65768;49.906;19.384;2023-05-19T12:52:48;99093.71;;;17.89;63.20
76815;BME280;65768;49.906;19.384;2023-05-19T12:55:22;99090.39;;;17.87;63.61
76815;BME280;65768;49.906;19.384;2023-05-19T12:57:51;99087.09;;;17.85;63.27
76815;BME280;65768;49.906;19.384;2023-05-19T13:00:29;99088.65;;;18.09;62.96
76815;BME280;65768;49.906;19.384;2023-05-19T13:03:01;99085.95;;;17.77;64.26
76815;BME280;65768;49.906;19.384;2023-05-19T13:05:41;99083.44;;;17.80;63.17
76815;BME280;65768;49.906;19.384;2023-05-19T13:08:18;99085.83;;;17.47;64.32
76815;BME280;65768;49.906;19.384;2023-05-19T13:10:47;99083.03;;;17.71;64.23
76815;BME280;65768;49.906;19.384;2023-05-19T13:13:16;99080.45;;;17.66;64.59
76815;BME280;65768;49.906;19.384;2023-05-19T13:15:45;99078.84;;;17.55;65.44
76815;BME280;65768;49.906;19.384;2023-05-19T13:18:16;99078.80;;;17.57;65.61
76815;BME280;65768;49.906;19.384;2023-05-19T13:20:45;99079.89;;;17.42;66.11
76815;BME280;65768;49.906;19.384;2023-05-19T13:23:14;99076.73;;;17.80;64.80
76815;BME280;65768;49.906;19.384;2023-05-19T13:25:42;99077.89;;;17.60;64.91
76815;BME280;65768;49.906;19.384;2023-05-19T13:28:13;99070.94;;;17.10;65.97
76815;BME280;65768;49.906;19.384;2023-05-19T13:30:42;99075.65;;;16.84;66.37
76815;BME280;65768;49.906;19.384;2023-05-19T13:33:11;99076.39;;;17.27;66.16
76815;BME280;65768;49.906;19.384;2023-05-19T13:35:41;99075.89;;;17.24;65.86
76815;BME280;65768;49.906;19.384;2023-05-19T13:38:09;99076.88;;;17.01;65.56
76815;BME280;65768;49.906;19.384;2023-05-19T13:40:41;99077.77;;;17.00;66.17
76815;BME280;65768;49.906;19.384;2023-05-19T13:43:11;99075.78;;;16.70;67.22
76815;BME280;65768;49.906;19.384;2023-05-19T13:45:39;99080.38;;;16.68;68.15
76815;BME280;65768;49.906;19.384;2023-05-19T13:48:09;99080.75;;;17.16;66.41
76815;BME280;65768;49.906;19.384;2023-05-19T13:50:38;99080.93;;;17.01;66.37
76815;BME280;65768;49.906;19.384;2023-05-19T13:53:07;99074.75;;;16.68;67.71
76815;BME280;65768;49.906;19.384;2023-05-19T13:55:36;99082.98;;;16.36;68.10
76815;BME280;65768;49.906;19.384;2023-05-19T13:58:04;99089.63;;;16.77;67.77
76815;BME280;65768;49.906;19.384;2023-05-19T14:00:35;99087.16;;;17.24;66.67
76815;BME280;65768;49.906;19.384;2023-05-19T14:03:03;99083.39;;;17.16;65.82
76815;BME280;65768;49.906;19.384;2023-05-19T14:05:32;99086.89;;;17.45;65.83
76815;BME280;65768;49.906;19.384;2023-05-19T14:08:00;99085.87;;;17.30;66.42
76815;BME280;65768;49.906;19.384;2023-05-19T14:10:30;99085.84;;;17.03;66.79
76815;BME280;65768;49.906;19.384;2023-05-19T14:12:59;99084.98;;;16.82;67.88
76815;BME280;65768;49.906;19.384;2023-05-19T14:15:27;99086.73;;;16.66;67.87
76815;BME280;65768;49.906;19.384;2023-05-19T14:17:59;99085.41;;;16.76;67.91
76815;BME280;65768;49.906;19.384;2023-05-19T14:20:30;99086.63;;;16.60;68.01
76815;BME280;65768;49.906;19.384;2023-05-19T14:22:59;99085.86;;;16.68;67.60
76815;BME280;65768;49.906;19.384;2023-05-19T14:25:29;99086.50;;;16.55;68.17
76815;BME280;65768;49.906;19.384;2023-05-19T14:27:58;99085.30;;;16.71;68.27
76815;BME280;65768;49.906;19.384;2023-05-19T14:30:27;99088.22;;;16.58;68.35
76815;BME280;65768;49.906;19.384;2023-05-19T14:32:55;99087.77;;;16.33;68.38